createdAt,value
2022-09-13T00:02:21.604Z,401.81
2022-09-13T00:07:28.631Z,401.96
2022-09-13T00:12:35.832Z,401.83
2022-09-13T00:17:43.034Z,403.23
2022-09-13T00:22:50.232Z,403.42
2022-09-13T00:27:57.386Z,403.98
2022-09-13T00:33:04.843Z,404.96
2022-09-13T00:38:11.827Z,405.46
2022-09-13T00:43:18.976Z,405.17
2022-09-13T00:48:26.151Z,405.60
2022-09-13T00:53:33.534Z,406.17
2022-09-13T00:58:40.745Z,404.82
2022-09-13T01:03:48.223Z,405.16
2022-09-13T01:08:55.177Z,406.07
2022-09-13T01:14:02.362Z,406.36
2022-09-13T01:19:09.689Z,405.62
2022-09-13T01:24:16.769Z,406.13
2022-09-13T01:29:23.980Z,406.83
2022-09-13T01:34:31.200Z,406.25
2022-09-13T01:39:38.426Z,406.59
2022-09-13T01:44:45.694Z,405.91
2022-09-13T01:49:52.935Z,405.78
2022-09-13T01:55:00.115Z,405.81
2022-09-13T02:00:07.300Z,405.76
2022-09-13T02:05:14.493Z,406.52
2022-09-13T02:10:21.728Z,406.07
2022-09-13T02:15:28.898Z,405.98
2022-09-13T02:20:36.166Z,406.19
2022-09-13T02:25:43.347Z,406.74
2022-09-13T02:30:50.533Z,405.74
2022-09-13T02:35:57.742Z,405.98
2022-09-13T02:41:05.453Z,406.71
2022-09-13T02:46:12.653Z,406.40
2022-09-13T02:51:19.869Z,405.19
2022-09-13T02:56:27.038Z,406.38
2022-09-13T03:01:34.331Z,405.63
2022-09-13T03:06:41.518Z,405.35
2022-09-13T03:11:48.692Z,404.99
2022-09-13T03:16:56.045Z,405.23
2022-09-13T03:22:03.197Z,405.79
2022-09-13T03:27:10.323Z,406.13
2022-09-13T03:32:17.587Z,406.77
2022-09-13T03:37:24.851Z,406.28
2022-09-13T03:42:32.040Z,405.38
2022-09-13T03:47:39.209Z,405.67
2022-09-13T03:52:46.718Z,405.46
2022-09-13T03:57:54.049Z,405.82
2022-09-13T04:03:01.254Z,405.15
2022-09-13T04:08:08.506Z,406.06
2022-09-13T04:13:15.664Z,406.17
2022-09-13T04:18:22.849Z,405.59
2022-09-13T04:23:30.166Z,405.29
2022-09-13T04:28:37.225Z,405.22
2022-09-13T04:33:44.408Z,404.37
2022-09-13T04:38:51.598Z,405.36
2022-09-13T04:43:58.814Z,405.59
2022-09-13T04:49:05.977Z,405.36
2022-09-13T04:54:15.546Z,404.01
2022-09-13T04:59:20.456Z,403.01
2022-09-13T05:04:27.697Z,403.03
2022-09-13T05:09:34.911Z,402.79
2022-09-13T05:14:42.090Z,403.27
2022-09-13T05:19:49.331Z,403.85
2022-09-13T05:24:56.618Z,403.86
2022-09-13T05:30:03.748Z,403.60
2022-09-13T05:35:10.927Z,403.52
2022-09-13T05:40:18.188Z,403.58
2022-09-13T05:45:25.317Z,404.38
2022-09-13T05:50:57.202Z,402.19
2022-09-13T05:55:39.782Z,401.75
2022-09-13T06:00:46.922Z,402.82
2022-09-13T06:05:54.160Z,402.97
2022-09-13T06:11:01.405Z,402.84
2022-09-13T06:16:08.555Z,402.82
2022-09-13T06:21:15.707Z,403.19
2022-09-13T06:26:22.946Z,403.34
2022-09-13T06:31:30.306Z,404.13
2022-09-13T06:36:37.359Z,405.25
2022-09-13T06:41:44.723Z,404.72
2022-09-13T06:46:51.808Z,404.33
2022-09-13T06:51:59.076Z,404.94
2022-09-13T06:57:06.403Z,404.87
2022-09-13T07:02:13.577Z,405.94
2022-09-13T07:07:20.733Z,406.57
2022-09-13T07:12:28.004Z,406.98
2022-09-13T07:17:35.173Z,408.03
2022-09-13T07:22:42.327Z,408.31
2022-09-13T07:27:49.594Z,408.36
2022-09-13T07:32:56.719Z,407.47
2022-09-13T07:38:03.923Z,407.14
2022-09-13T07:43:11.170Z,407.26
2022-09-13T07:48:18.393Z,407.03
2022-09-13T07:53:25.805Z,407.04
2022-09-13T07:58:33.109Z,407.36
2022-09-13T08:03:40.176Z,408.69
2022-09-13T08:08:47.398Z,409.77
2022-09-13T08:13:54.648Z,410.38
2022-09-13T08:19:01.811Z,410.34
2022-09-13T08:24:09.030Z,409.88
2022-09-13T08:29:16.610Z,410.07
2022-09-13T08:34:23.833Z,410.32
2022-09-13T08:39:33.446Z,409.51
2022-09-13T08:44:38.196Z,409.74
2022-09-13T08:49:45.351Z,410.59
2022-09-13T08:54:57.482Z,411.62
2022-09-13T08:59:59.866Z,411.23
2022-09-13T09:05:07.065Z,411.60
2022-09-13T09:10:14.222Z,411.22
2022-09-13T09:15:21.485Z,411.44
2022-09-13T09:20:28.645Z,412.16
2022-09-13T09:25:35.839Z,411.86
2022-09-13T09:30:43.106Z,411.86
2022-09-13T09:35:50.191Z,411.77
2022-09-13T09:40:57.396Z,412.69
2022-09-13T09:46:04.689Z,412.64
2022-09-13T09:51:11.755Z,412.56
2022-09-13T09:56:18.913Z,413.16
2022-09-13T10:01:26.250Z,412.69
2022-09-13T10:06:33.363Z,412.29
2022-09-13T10:11:40.605Z,412.32
2022-09-13T10:16:47.893Z,412.78
2022-09-13T10:21:55.031Z,413.05
2022-09-13T10:27:02.256Z,413.28
2022-09-13T10:32:09.724Z,413.43
2022-09-13T10:37:16.918Z,413.58
2022-09-13T10:42:24.133Z,414.67
2022-09-13T10:47:31.448Z,414.79
2022-09-13T10:52:38.598Z,415.73
2022-09-13T10:57:45.839Z,416.39
2022-09-13T11:02:53.069Z,417.59
2022-09-13T11:08:00.261Z,418.26
2022-09-13T11:13:07.475Z,418.81
2022-09-13T11:18:14.739Z,419.02
2022-09-13T11:23:21.867Z,418.99
2022-09-13T11:28:29.083Z,418.57
2022-09-13T11:33:36.390Z,418.19
2022-09-13T11:38:43.480Z,418.82
2022-09-13T11:43:50.790Z,419.12
2022-09-13T11:48:58.026Z,419.79
2022-09-13T11:54:05.152Z,420.70
2022-09-13T11:59:15.600Z,421.16
2022-09-13T12:04:19.675Z,422.16
2022-09-13T12:09:26.906Z,422.59
2022-09-13T12:14:34.162Z,423.05
2022-09-13T12:19:41.460Z,423.28
2022-09-13T12:24:48.565Z,423.37
2022-09-13T12:29:55.736Z,423.15
2022-09-13T12:35:03.026Z,423.10
2022-09-13T12:40:10.311Z,423.57
2022-09-13T12:45:17.432Z,424.20
2022-09-13T12:55:46.486Z,425.09
2022-09-13T13:00:39.068Z,426.09
2022-09-13T13:05:46.188Z,427.34
2022-09-13T13:10:53.329Z,427.80
2022-09-13T13:16:00.547Z,427.47
2022-09-13T13:21:07.661Z,427.80
2022-09-13T13:26:14.802Z,427.05
2022-09-13T13:31:22.125Z,426.74
2022-09-13T13:36:29.234Z,426.62
2022-09-13T13:41:36.397Z,426.99
2022-09-13T13:46:43.593Z,427.48
2022-09-13T13:51:50.922Z,428.19
2022-09-13T13:56:58.013Z,428.62
2022-09-13T14:02:05.225Z,428.81
2022-09-13T14:07:19.408Z,429.65
2022-09-13T14:12:19.648Z,430.41
2022-09-13T14:17:26.953Z,430.51
2022-09-13T14:22:34.343Z,431.23
2022-09-13T14:27:41.333Z,432.47
2022-09-13T14:32:48.547Z,432.57
2022-09-13T14:37:55.808Z,432.62
2022-09-13T14:43:02.953Z,433.24
2022-09-13T14:48:10.183Z,433.36
2022-09-13T14:53:17.432Z,434.16
2022-09-13T14:58:24.609Z,434.59
2022-09-13T15:03:31.766Z,434.44
2022-09-13T15:08:39.050Z,434.03
2022-09-13T15:13:46.185Z,433.80
2022-09-13T15:18:53.373Z,433.59
2022-09-13T15:24:00.634Z,433.62
2022-09-13T15:29:07.800Z,433.53
2022-09-13T15:34:15.011Z,433.12
2022-09-13T15:39:22.230Z,434.14
2022-09-13T15:44:29.466Z,434.14
2022-09-13T15:49:36.710Z,434.97
2022-09-13T15:54:44.039Z,434.98
2022-09-13T15:59:51.135Z,435.53
2022-09-13T16:04:58.405Z,436.34
2022-09-13T16:10:05.693Z,436.38
2022-09-13T16:15:12.856Z,436.78
2022-09-13T16:20:20.063Z,436.86
2022-09-13T16:25:27.523Z,437.62
2022-09-13T16:30:34.589Z,437.16
2022-09-13T16:35:41.764Z,437.31
2022-09-13T16:40:49.093Z,437.15
2022-09-13T16:45:56.183Z,436.90
2022-09-13T16:51:03.406Z,437.06
2022-09-13T16:56:10.616Z,437.68
2022-09-13T17:01:17.773Z,437.77
2022-09-13T17:06:24.942Z,438.66
2022-09-13T17:11:32.146Z,439.33
2022-09-13T17:16:39.432Z,438.69
2022-09-13T17:21:46.510Z,439.47
2022-09-13T17:26:53.827Z,439.63
2022-09-13T17:32:00.918Z,439.83
2022-09-13T17:37:08.126Z,439.48
2022-09-13T17:42:16.171Z,438.67
2022-09-13T17:47:22.587Z,439.09
2022-09-13T17:52:34.205Z,438.93
2022-09-13T17:57:37.074Z,437.87
2022-09-13T18:02:44.226Z,438.28
2022-09-13T18:07:52.560Z,438.39
2022-09-13T18:12:59.895Z,438.19
2022-09-13T18:18:07.399Z,438.27
2022-09-13T18:23:14.911Z,438.18
2022-09-13T18:28:24.801Z,438.51
2022-09-13T18:33:32.394Z,439.36
2022-09-13T18:38:40.037Z,438.88
2022-09-13T18:43:50.600Z,438.73
2022-09-13T18:48:55.337Z,438.80
2022-09-13T18:54:03.058Z,438.60
2022-09-13T18:59:10.784Z,438.43
2022-09-13T19:04:18.179Z,438.50
2022-09-13T19:09:25.901Z,438.37
2022-09-13T19:14:33.620Z,438.37
2022-09-13T19:19:41.127Z,438.12
2022-09-13T19:24:48.742Z,437.83
2022-09-13T19:29:56.485Z,438.14
2022-09-13T19:35:04.079Z,437.63
2022-09-13T19:40:11.810Z,436.42
2022-09-13T19:45:19.323Z,436.24
2022-09-13T19:50:26.915Z,436.06
2022-09-13T19:55:34.532Z,435.96
2022-09-13T20:00:42.133Z,436.10
2022-09-13T20:05:49.663Z,436.30
2022-09-13T20:10:57.189Z,436.80
2022-09-13T20:16:04.869Z,436.85
2022-09-13T20:21:12.405Z,437.26
2022-09-13T20:26:20.014Z,436.55
2022-09-13T20:31:27.661Z,436.45
2022-09-13T20:36:35.239Z,435.87
2022-09-13T20:41:42.859Z,435.65
2022-09-13T20:46:50.489Z,435.06
2022-09-13T20:51:57.979Z,434.24
2022-09-13T20:57:05.289Z,433.92
2022-09-13T21:02:12.624Z,433.30
2022-09-13T21:07:19.718Z,433.96
2022-09-13T21:12:26.898Z,433.78
2022-09-13T21:17:34.250Z,434.68
2022-09-13T21:22:41.318Z,434.12
2022-09-13T21:27:48.512Z,434.17
2022-09-13T21:32:55.772Z,434.75
2022-09-13T21:38:02.998Z,434.21
2022-09-13T21:43:10.242Z,434.08
2022-09-13T21:48:17.547Z,433.73
2022-09-13T21:53:24.717Z,433.52
2022-09-13T21:58:31.981Z,432.68
2022-09-13T22:03:39.246Z,432.39
2022-09-13T22:08:46.384Z,433.15
2022-09-13T22:13:53.584Z,433.43
2022-09-13T22:19:03.283Z,434.81
2022-09-13T22:24:07.943Z,435.28
2022-09-13T22:29:15.190Z,435.31
2022-09-13T22:34:22.413Z,435.66
2022-09-13T22:39:29.590Z,435.54
2022-09-13T22:44:36.806Z,435.93
2022-09-13T22:49:44.030Z,435.78
2022-09-13T22:54:51.208Z,436.70
2022-09-13T22:59:58.477Z,437.01
2022-09-13T23:05:05.753Z,437.80
2022-09-13T23:10:12.932Z,439.86
2022-09-13T23:15:20.146Z,440.74
2022-09-13T23:20:27.452Z,439.17
2022-09-13T23:25:34.594Z,437.66
2022-09-13T23:30:41.842Z,438.58
2022-09-13T23:35:49.077Z,439.61
2022-09-13T23:40:56.263Z,438.98
2022-09-13T23:46:03.552Z,439.16
2022-09-13T23:51:10.770Z,438.78
2022-09-13T23:56:17.864Z,437.84
